Flugplatz Brilon/Hochsauerlandkreis

Für EDKO sind keine METAR/TAF Berichte vorhanden.
Es werden die Flugwettermeldungen vom Flugplatz Paderborn Lippstadt in 23 km Entfernung angezeigt.

Bericht für EDLP

vom 14.11. um 11:50 UTC

Wind 11 kt aus 120°

Sichtweite 10 km oder mehr

gute Sicht, keine Wolken < 5000 ft, keine CB, keine Wettererscheinungen (CAVOK)

Temperatur 7.0°C

Taupunkt 1.0°C

Luftfeuchtigkeit 66%

Luftdruck 1003 hPa

EDLP 141150Z 12011KT CAVOK 07/01 Q1003

Prognose für EDLP

vom 14.11. um 00:00 UTC

Zwischen 00:00 UTC und 00:00 UTC

Wind 10 kt aus 120°

Sichtweite 10 km oder mehr

keine signifikanten Wettererscheinungen

keine Wolken


Am 15.11. zwischen 00:00 UTC und 00:00 UTC zeitweise

aufgebrochene Bewölkung in 1000 ft


Am 15.11. zwischen 00:00 UTC und 00:00 UTC zeitweise mit einer Wahrscheinlichkeit von 30%

Sichtweite 4000 m

feuchter Dunst


Am 15.11. zwischen 00:00 UTC und 00:00 UTC zeitweise mit einer Wahrscheinlichkeit von 30%

aufgebrochene Bewölkung in 1200 ft

TAF EDLP 141100Z 1412/1512 12010KT CAVOK TEMPO 1502/1509 BKN010 PROB30 TEMPO 1503/1508 4000 BR PROB30 TEMPO 1509/1512 BKN012
Impressum